Time;durP1;ratioP1;P1;durP2;ratioP2;P2;SDS_P1;SDS_P2;PMS_P1;PMS_P2;Temp;Humidity;BMP_temperature;BMP_pressure;BME280_temperature;BME280_humidity;BME280_pressure;Samples;Min_cycle;Max_cycle;Signal;HPM_P1;HPM_P2
2023/08/18 00:02:17;;;;;;;0.22;0.10;;;;;;;19.48;100.00;100129.69;7399103;19;20017;-57
2023/08/18 00:04:43;;;;;;;0.20;0.10;;;;;;;19.88;100.00;100132.81;7400840;19;20042;-57
2023/08/18 00:07:10;;;;;;;0.15;0.15;;;;;;;19.57;100.00;100131.38;7398119;19;20010;-57
2023/08/18 00:09:36;;;;;;;0.17;0.10;;;;;;;19.49;100.00;100119.91;7398003;19;20030;-57
2023/08/18 00:12:04;;;;;;;0.00;0.00;;;;;;;19.39;100.00;100121.56;7399905;19;20019;-57
2023/08/18 00:14:31;;;;;;;0.68;0.25;;;;;;;19.44;100.00;100117.91;7397663;19;20324;-57
2023/08/18 00:16:57;;;;;;;2.58;0.50;;;;;;;19.98;100.00;100108.50;7400136;19;20340;-57
2023/08/18 00:19:23;;;;;;;0.47;0.22;;;;;;;20.28;100.00;100117.63;7397665;19;20027;-57
2023/08/18 00:21:49;;;;;;;1.05;0.52;;;;;;;19.88;100.00;100116.59;7398418;19;20339;-56
2023/08/18 00:24:15;;;;;;;0.10;0.10;;;;;;;19.55;100.00;100123.44;7396539;19;20013;-56
2023/08/18 00:26:42;;;;;;;1.08;0.30;;;;;;;19.57;100.00;100123.69;7396827;19;20055;-57
2023/08/18 00:29:08;;;;;;;0.95;0.15;;;;;;;19.39;100.00;100118.72;7396489;19;20470;-56
2023/08/18 00:31:34;;;;;;;0.98;0.57;;;;;;;20.06;100.00;100110.19;7401163;19;20007;-57
2023/08/18 00:34:00;;;;;;;0.10;0.10;;;;;;;19.16;100.00;100108.94;7397616;19;20019;-56
2023/08/18 00:36:27;;;;;;;0.10;0.03;;;;;;;19.54;100.00;100102.13;7396049;19;20007;-57
2023/08/18 00:38:54;;;;;;;0.10;0.00;;;;;;;20.91;100.00;100100.66;7394864;19;20362;-56
2023/08/18 00:41:20;;;;;;;0.13;0.10;;;;;;;19.48;100.00;100107.09;7394978;19;20010;-57
2023/08/18 00:43:46;;;;;;;0.98;0.40;;;;;;;19.51;100.00;100097.53;7396609;19;20063;-57
2023/08/18 00:46:12;;;;;;;0.93;0.28;;;;;;;20.66;100.00;100079.47;7398829;19;20035;-57
2023/08/18 00:48:39;;;;;;;0.15;0.15;;;;;;;19.28;100.00;100087.75;7394857;19;20022;-57
2023/08/18 00:51:06;;;;;;;0.30;0.25;;;;;;;19.16;100.00;100089.19;7394569;19;20017;-57
2023/08/18 00:53:33;;;;;;;0.25;0.08;;;;;;;19.16;100.00;100083.53;7395077;19;20006;-56
2023/08/18 00:56:00;;;;;;;0.52;0.25;;;;;;;19.27;100.00;100077.78;7396574;19;20070;-56
2023/08/18 00:58:26;;;;;;;0.32;0.32;;;;;;;19.74;100.00;100069.00;7396244;19;20019;-56
2023/08/18 01:00:53;;;;;;;0.15;0.10;;;;;;;19.89;100.00;100061.59;7394674;19;20027;-57
2023/08/18 01:03:20;;;;;;;0.73;0.20;;;;;;;19.91;100.00;100061.81;7399197;19;20022;-57
2023/08/18 01:05:47;;;;;;;0.55;0.22;;;;;;;19.94;100.00;100063.59;7394658;19;20469;-56
2023/08/18 01:08:13;;;;;;;1.02;0.20;;;;;;;19.50;100.00;100067.75;7395512;19;20458;-56
2023/08/18 01:10:50;;;;;;;0.20;0.20;;;;;;;19.23;100.00;100054.69;7396045;19;20010;-55
2023/08/18 01:13:27;;;;;;;3.03;0.55;;;;;;;19.09;100.00;100050.25;7400041;19;20030;-56
2023/08/18 01:15:56;;;;;;;0.10;0.10;;;;;;;19.05;100.00;100052.59;7394617;19;20014;-56
2023/08/18 01:18:25;;;;;;;1.30;0.30;;;;;;;18.71;100.00;100037.28;7393414;19;20014;-55
2023/08/18 01:20:53;;;;;;;0.45;0.45;;;;;;;19.00;100.00;100032.88;7395746;19;20512;-55
2023/08/18 01:23:19;;;;;;;0.35;0.25;;;;;;;19.44;100.00;100021.09;7398171;19;20062;-55
2023/08/18 01:25:46;;;;;;;0.38;0.20;;;;;;;18.83;100.00;100022.53;7394977;19;20050;-55
2023/08/18 01:28:12;;;;;;;0.25;0.10;;;;;;;19.07;100.00;100021.78;7391317;19;20378;-55
2023/08/18 01:30:45;;;;;;;0.10;0.10;;;;;;;18.79;100.00;100024.13;7396259;19;20015;-56
2023/08/18 01:33:11;;;;;;;0.17;0.08;;;;;;;18.58;100.00;100025.88;7397281;19;20031;-56
2023/08/18 01:35:39;;;;;;;0.10;0.10;;;;;;;18.35;100.00;100035.75;7394033;19;20037;-55
2023/08/18 01:38:08;;;;;;;0.25;0.22;;;;;;;18.68;100.00;100041.94;7393368;19;20018;-56
2023/08/18 01:40:37;;;;;;;0.35;0.30;;;;;;;18.60;100.00;100045.84;7393220;19;20066;-56
2023/08/18 01:43:04;;;;;;;0.82;0.43;;;;;;;19.21;100.00;100048.81;7397221;19;20010;-56
2023/08/18 01:45:30;;;;;;;1.13;0.38;;;;;;;18.48;100.00;100050.03;7393082;19;20404;-56
2023/08/18 01:47:58;;;;;;;0.17;0.17;;;;;;;18.56;100.00;100048.19;7392289;19;20576;-56
2023/08/18 01:50:24;;;;;;;0.25;0.25;;;;;;;18.56;100.00;100045.38;7395046;19;20026;-55
2023/08/18 01:52:50;;;;;;;1.05;0.40;;;;;;;18.73;100.00;100046.75;7391949;19;20015;-56
2023/08/18 01:55:16;;;;;;;0.10;0.10;;;;;;;18.77;100.00;100038.00;7398154;19;20010;-55
2023/08/18 01:57:42;;;;;;;0.35;0.20;;;;;;;18.88;100.00;100043.53;7391898;19;20483;-56
2023/08/18 02:00:09;;;;;;;0.10;0.10;;;;;;;18.86;100.00;100041.22;7388519;19;20009;-87
2023/08/18 02:02:38;;;;;;;0.30;0.20;;;;;;;18.86;100.00;100044.03;7389350;19;20019;-88
2023/08/18 02:05:05;;;;;;;2.08;0.60;;;;;;;18.98;100.00;100036.25;7392110;19;20025;-88
2023/08/18 02:07:31;;;;;;;1.10;0.32;;;;;;;19.20;100.00;100041.66;7390715;19;20010;-88
2023/08/18 02:09:57;;;;;;;0.50;0.50;;;;;;;18.93;100.00;100034.22;7392071;19;20014;-87
2023/08/18 02:12:25;;;;;;;0.30;0.20;;;;;;;19.08;100.00;100037.41;7392388;19;20015;-87
2023/08/18 02:14:51;;;;;;;0.63;0.10;;;;;;;19.15;100.00;100036.81;7395340;19;20025;-87
2023/08/18 02:17:17;;;;;;;6.20;0.38;;;;;;;19.16;100.00;100034.75;7392850;19;20046;-87
2023/08/18 02:19:43;;;;;;;0.45;0.40;;;;;;;19.24;100.00;100022.34;7388770;19;20495;-87
2023/08/18 02:22:10;;;;;;;0.60;0.22;;;;;;;19.09;100.00;100029.69;7389814;19;20453;-87
2023/08/18 02:24:36;;;;;;;0.17;0.17;;;;;;;19.15;100.00;100019.88;7391681;19;20050;-87
2023/08/18 02:27:02;;;;;;;0.10;0.10;;;;;;;19.51;100.00;100026.91;7387986;19;20026;-87
2023/08/18 02:29:30;;;;;;;0.68;0.22;;;;;;;19.65;100.00;100020.03;7388968;19;20018;-87
2023/08/18 02:31:56;;;;;;;0.95;0.55;;;;;;;19.82;100.00;100027.50;7390784;19;20356;-87
2023/08/18 02:34:23;;;;;;;0.10;0.10;;;;;;;25.39;100.00;100010.22;7392889;19;20015;-86
2023/08/18 02:36:49;;;;;;;2.25;0.25;;;;;;;20.17;100.00;100018.78;7390737;19;20015;-88
2023/08/18 02:39:15;;;;;;;0.40;0.15;;;;;;;19.43;100.00;100014.69;7389445;19;20014;-87
2023/08/18 02:41:42;;;;;;;13.68;0.50;;;;;;;19.66;100.00;100006.69;7390108;19;20085;-87
2023/08/18 02:44:08;;;;;;;0.40;0.20;;;;;;;19.95;100.00;100002.13;7393474;19;20022;-87
2023/08/18 02:46:34;;;;;;;0.10;0.03;;;;;;;20.19;100.00;99993.53;7393797;19;20426;-86
2023/08/18 02:49:02;;;;;;;0.20;0.20;;;;;;;20.44;100.00;99988.53;7390420;19;20078;-87
2023/08/18 02:51:28;;;;;;;0.85;0.43;;;;;;;19.96;100.00;99983.91;7390388;19;20016;-87
2023/08/18 02:53:54;;;;;;;0.10;0.10;;;;;;;20.00;100.00;99987.16;7392441;19;20018;-88
2023/08/18 02:56:20;;;;;;;4.75;0.30;;;;;;;19.98;100.00;99986.94;7390587;19;20046;-87
2023/08/18 02:58:46;;;;;;;5.05;1.15;;;;;;;19.18;100.00;99999.06;7389358;19;20019;-87
2023/08/18 03:01:12;;;;;;;0.10;0.10;;;;;;;19.54;100.00;99997.59;7389840;19;20025;-88
2023/08/18 03:03:39;;;;;;;0.10;0.10;;;;;;;19.03;100.00;100001.56;7390477;19;20006;-87
2023/08/18 03:06:06;;;;;;;0.10;0.10;;;;;;;18.90;100.00;99995.78;7389587;19;20031;-87
2023/08/18 03:08:33;;;;;;;2.05;0.57;;;;;;;18.79;100.00;99990.25;7389462;19;20015;-87
2023/08/18 03:11:00;;;;;;;0.15;0.15;;;;;;;19.02;100.00;99980.25;7389544;19;20014;-87
2023/08/18 03:13:27;;;;;;;0.65;0.30;;;;;;;18.96;100.00;99976.72;7388184;19;20014;-86
2023/08/18 03:15:53;;;;;;;0.10;0.10;;;;;;;19.01;100.00;99966.69;7397138;19;20032;-86
2023/08/18 03:18:20;;;;;;;0.10;0.00;;;;;;;18.74;100.00;99960.03;7393873;19;20109;-87
2023/08/18 03:20:48;;;;;;;0.47;0.43;;;;;;;19.03;100.00;99964.09;7395125;19;20019;-87
2023/08/18 03:23:15;;;;;;;1.77;0.17;;;;;;;18.88;100.00;99958.88;7393477;19;20468;-87
2023/08/18 03:25:42;;;;;;;0.75;0.40;;;;;;;19.03;100.00;99964.09;7393575;19;20062;-87
2023/08/18 03:28:10;;;;;;;0.20;0.10;;;;;;;18.92;100.00;99964.97;7394493;19;20019;-87
2023/08/18 03:30:38;;;;;;;0.47;0.38;;;;;;;19.38;100.00;99961.84;7391865;19;20510;-87
2023/08/18 03:33:06;;;;;;;0.10;0.10;;;;;;;19.50;100.00;99954.75;7390703;19;20021;-87
2023/08/18 03:35:35;;;;;;;1.23;0.68;;;;;;;19.37;100.00;99943.38;7391651;19;20014;-87
2023/08/18 03:38:04;;;;;;;0.30;0.20;;;;;;;19.29;100.00;99938.84;7390326;19;20014;-88
2023/08/18 03:40:31;;;;;;;0.20;0.20;;;;;;;19.52;100.00;99948.56;7389537;19;20027;-89
2023/08/18 03:42:57;;;;;;;0.77;0.43;;;;;;;19.28;100.00;99934.50;7392677;19;20025;-87
2023/08/18 03:45:24;;;;;;;0.32;0.15;;;;;;;19.33;100.00;99939.31;7394509;19;20015;-87
2023/08/18 03:47:50;;;;;;;0.30;0.30;;;;;;;19.64;100.00;99945.03;7392071;19;20022;-87
2023/08/18 03:50:18;;;;;;;0.68;0.40;;;;;;;19.24;100.00;99943.28;7395604;19;20014;-87
2023/08/18 03:52:44;;;;;;;1.20;0.22;;;;;;;19.35;100.00;99948.81;7394695;19;20393;-87
2023/08/18 03:55:11;;;;;;;0.63;0.10;;;;;;;19.56;100.00;99932.84;7394886;19;20356;-87
2023/08/18 03:57:37;;;;;;;0.57;0.40;;;;;;;19.39;100.00;99934.38;7393753;19;20014;-88
2023/08/18 04:00:03;;;;;;;0.35;0.35;;;;;;;19.46;100.00;99930.94;7392963;19;20529;-87
2023/08/18 04:02:39;;;;;;;1.88;1.13;;;;;;;19.95;100.00;99923.75;7394173;19;20026;-86
2023/08/18 04:05:07;;;;;;;0.30;0.17;;;;;;;19.02;100.00;99923.03;7392000;19;20611;-86
2023/08/18 04:07:34;;;;;;;0.20;0.10;;;;;;;19.05;100.00;99921.97;7394139;19;20025;-87
2023/08/18 04:10:00;;;;;;;0.20;0.10;;;;;;;19.36;100.00;99924.91;7396909;19;20018;-87
2023/08/18 04:12:27;;;;;;;0.43;0.40;;;;;;;19.40;100.00;99919.72;7395526;19;20025;-87
2023/08/18 04:14:53;;;;;;;0.43;0.25;;;;;;;19.41;100.00;99921.25;7395227;19;20010;-87
2023/08/18 04:17:19;;;;;;;0.15;0.15;;;;;;;19.61;100.00;99926.34;7397332;19;20014;-88
2023/08/18 04:19:46;;;;;;;0.70;0.13;;;;;;;19.00;100.00;99926.38;7392014;19;20021;-87
2023/08/18 04:22:12;;;;;;;0.30;0.20;;;;;;;19.16;100.00;99916.19;7392887;19;20019;-87
2023/08/18 04:24:39;;;;;;;0.80;0.30;;;;;;;19.61;100.00;99911.47;7393195;19;20461;-88
2023/08/18 04:27:05;;;;;;;6.05;0.90;;;;;;;19.79;100.00;99913.50;7392570;19;20011;-87
2023/08/18 04:29:31;;;;;;;1.52;0.32;;;;;;;20.27;100.00;99916.03;7392864;19;20023;-86
2023/08/18 04:31:57;;;;;;;0.57;0.55;;;;;;;20.28;100.00;99916.81;7394134;19;20024;-86
2023/08/18 04:34:23;;;;;;;0.20;0.20;;;;;;;20.00;100.00;99917.25;7395224;19;20026;-88
2023/08/18 04:36:50;;;;;;;1.23;0.85;;;;;;;20.22;100.00;99913.31;7394683;19;20382;-87
2023/08/18 04:39:16;;;;;;;0.10;0.10;;;;;;;19.86;100.00;99912.84;7392394;19;20014;-87
2023/08/18 04:41:43;;;;;;;0.25;0.15;;;;;;;19.73;100.00;99903.59;7393930;19;20077;-87
2023/08/18 04:44:09;;;;;;;0.22;0.22;;;;;;;20.49;100.00;99897.16;7393205;19;20014;-87
2023/08/18 04:46:37;;;;;;;1.98;0.30;;;;;;;20.07;100.00;99891.19;7396358;19;20006;-87
2023/08/18 04:49:10;;;;;;;0.20;0.20;;;;;;;20.34;100.00;99884.28;7392210;19;20014;-88
2023/08/18 04:51:36;;;;;;;0.10;0.10;;;;;;;20.60;100.00;99879.94;7394079;19;20021;-87
2023/08/18 04:54:03;;;;;;;0.10;0.10;;;;;;;23.18;100.00;99873.28;7395495;19;20034;-87
2023/08/18 04:56:29;;;;;;;1.33;0.30;;;;;;;20.40;100.00;99895.47;7393178;19;20381;-88
2023/08/18 04:58:56;;;;;;;0.10;0.10;;;;;;;20.37;100.00;99893.75;7393503;19;20090;-87
2023/08/18 05:01:22;;;;;;;0.40;0.30;;;;;;;19.77;100.00;99898.38;7394531;19;20014;-88
2023/08/18 05:03:48;;;;;;;1.45;0.10;;;;;;;19.47;100.00;99887.25;7393694;19;20060;-88
2023/08/18 05:06:14;;;;;;;0.47;0.40;;;;;;;19.61;100.00;99869.84;7393535;19;20381;-94
2023/08/18 05:08:41;;;;;;;2.65;0.30;;;;;;;19.99;100.00;99861.25;7393202;19;20011;-89
2023/08/18 05:11:10;;;;;;;0.70;0.47;;;;;;;20.04;100.00;99868.88;7393508;19;20032;-88
2023/08/18 05:13:38;;;;;;;1.30;0.25;;;;;;;19.41;100.00;99875.28;7394223;19;20018;-89
2023/08/18 05:16:04;;;;;;;0.45;0.43;;;;;;;19.48;100.00;99864.16;7394316;19;20412;-85
2023/08/18 05:18:32;;;;;;;1.27;0.43;;;;;;;19.35;100.00;99866.91;7388503;19;20041;-85
2023/08/18 05:20:59;;;;;;;10.50;1.92;;;;;;;19.34;100.00;99859.72;7388988;19;20453;-86
2023/08/18 05:23:25;;;;;;;4.07;0.32;;;;;;;20.33;100.00;99862.19;7389619;19;20396;-85
2023/08/18 05:25:56;;;;;;;4.88;1.70;;;;;;;18.97;100.00;99853.31;7392824;19;20086;-86
2023/08/18 05:28:23;;;;;;;;;;;;;;;19.49;100.00;99860.00;7391101;19;20017;-85
2023/08/18 05:30:50;;;;;;;2.05;0.38;;;;;;;19.15;100.00;99846.88;7392185;19;19955;-85
2023/08/18 05:33:17;;;;;;;7.35;0.85;;;;;;;19.39;100.00;99844.75;7389969;19;20029;-85
2023/08/18 05:35:43;;;;;;;0.63;0.63;;;;;;;19.57;100.00;99846.81;7389145;19;20006;-85
2023/08/18 05:38:10;;;;;;;0.40;0.20;;;;;;;19.94;100.00;99850.81;7388360;19;20021;-85
2023/08/18 05:40:45;;;;;;;0.70;0.45;;;;;;;19.90;100.00;99842.66;7389071;19;20010;-85
2023/08/18 05:43:15;;;;;;;4.88;0.52;;;;;;;19.95;100.00;99843.84;7390525;19;20015;-85
2023/08/18 05:45:42;;;;;;;13.65;0.35;;;;;;;19.93;100.00;99847.22;7389549;19;20046;-85
2023/08/18 05:48:09;;;;;;;0.85;0.22;;;;;;;20.30;100.00;99840.66;7389205;19;20082;-86
2023/08/18 05:50:35;;;;;;;5.18;0.60;;;;;;;20.03;100.00;99850.38;7391217;19;20011;-85
2023/08/18 05:53:02;;;;;;;3.83;1.25;;;;;;;20.09;100.00;99842.56;7390883;19;20396;-85
2023/08/18 05:55:29;;;;;;;0.45;0.40;;;;;;;20.15;100.00;99841.16;7391690;19;20045;-85
2023/08/18 05:57:58;;;;;;;1.23;0.32;;;;;;;20.20;100.00;99842.38;7389721;19;20031;-86
2023/08/18 06:00:25;;;;;;;1.95;0.55;;;;;;;20.10;100.00;99827.88;7391363;19;20042;-86
2023/08/18 06:02:51;;;;;;;0.13;0.10;;;;;;;27.99;100.00;99815.13;7391335;19;20018;-86
2023/08/18 06:05:17;;;;;;;0.85;0.52;;;;;;;38.06;60.03;99790.22;7389000;19;20025;-86
2023/08/18 06:07:43;;;;;;;3.85;0.75;;;;;;;41.74;43.44;99782.00;7388654;19;20044;-86
2023/08/18 06:10:12;;;;;;;0.50;0.45;;;;;;;35.12;69.13;99774.78;7387652;19;20042;-87
2023/08/18 06:12:38;;;;;;;0.47;0.47;;;;;;;26.99;91.02;99792.19;7392223;19;20011;-87
2023/08/18 06:15:11;;;;;;;1.40;0.43;;;;;;;23.92;100.00;99797.97;7388938;19;20019;-87
2023/08/18 06:17:37;;;;;;;0.85;0.57;;;;;;;23.17;100.00;99806.41;7393343;19;20026;-87
2023/08/18 06:20:04;;;;;;;0.20;0.20;;;;;;;38.93;55.27;99793.28;7390297;19;20018;-87
2023/08/18 06:22:30;;;;;;;0.57;0.32;;;;;;;28.65;75.14;99796.56;7393476;19;20019;-86
2023/08/18 06:24:56;;;;;;;1.17;0.10;;;;;;;22.10;100.00;99797.91;7388091;19;20018;-85
2023/08/18 06:27:23;;;;;;;0.93;0.43;;;;;;;26.93;94.72;99788.84;7388379;19;20033;-85
2023/08/18 06:29:49;;;;;;;1.42;0.40;;;;;;;28.43;100.00;99787.03;7389446;19;20520;-85
2023/08/18 06:32:15;;;;;;;1.15;0.43;;;;;;;27.30;99.96;99780.31;7392092;19;20014;-85
2023/08/18 06:34:42;;;;;;;0.35;0.22;;;;;;;37.88;58.02;99777.97;7389604;19;20014;-84
2023/08/18 06:37:10;;;;;;;0.10;0.00;;;;;;;34.14;50.93;99776.28;7389526;19;20014;-85
2023/08/18 06:39:36;;;;;;;0.70;0.38;;;;;;;41.24;42.68;99773.59;7388750;19;20543;-85
2023/08/18 06:42:02;;;;;;;1.08;0.28;;;;;;;37.08;52.19;99779.19;7389769;19;20304;-86
2023/08/18 06:44:28;;;;;;;0.25;0.10;;;;;;;37.96;43.03;99781.16;7389235;19;20078;-86
2023/08/18 06:46:54;;;;;;;0.10;0.03;;;;;;;23.05;100.00;99813.75;7392551;19;20416;-87
2023/08/18 06:49:20;;;;;;;0.45;0.20;;;;;;;23.17;100.00;99809.25;7391325;19;20023;-86
2023/08/18 06:51:47;;;;;;;0.25;0.20;;;;;;;21.87;100.00;99812.69;7397984;19;20015;-85
2023/08/18 06:54:13;;;;;;;0.52;0.10;;;;;;;20.43;100.00;99809.53;7397670;19;20121;-86
2023/08/18 06:56:39;;;;;;;0.10;0.10;;;;;;;22.98;100.00;99814.47;7396866;19;20014;-86
2023/08/18 06:59:05;;;;;;;0.40;0.30;;;;;;;20.73;100.00;99826.91;7396148;19;20014;-86
2023/08/18 07:01:32;;;;;;;0.10;0.10;;;;;;;19.56;100.00;99822.66;7397050;19;20018;-87
2023/08/18 07:03:58;;;;;;;0.13;0.10;;;;;;;20.09;100.00;99819.94;7400551;19;20022;-86
2023/08/18 07:06:24;;;;;;;2.60;0.30;;;;;;;34.39;80.08;99802.19;7395842;19;20022;-87
2023/08/18 07:08:50;;;;;;;0.57;0.20;;;;;;;21.66;100.00;99822.47;7393748;19;20011;-86
2023/08/18 07:11:16;;;;;;;0.13;0.08;;;;;;;20.95;100.00;99837.78;7397219;19;20018;-87
2023/08/18 07:13:43;;;;;;;0.73;0.50;;;;;;;20.38;100.00;99841.50;7395436;19;20045;-87
2023/08/18 07:16:09;;;;;;;0.20;0.10;;;;;;;20.44;100.00;99838.59;7396737;19;20014;-86
2023/08/18 07:18:35;;;;;;;0.73;0.20;;;;;;;20.07;100.00;99834.63;7395120;19;20413;-87
2023/08/18 07:21:02;;;;;;;2.00;0.63;;;;;;;20.12;100.00;99835.84;7395979;19;20015;-86
2023/08/18 07:23:29;;;;;;;0.10;0.08;;;;;;;20.15;100.00;99840.41;7395318;19;20078;-86
2023/08/18 07:25:55;;;;;;;0.50;0.13;;;;;;;21.02;100.00;99842.00;7395057;19;20043;-86
2023/08/18 07:28:21;;;;;;;0.63;0.25;;;;;;;20.51;100.00;99849.25;7395342;19;20003;-87
2023/08/18 07:30:47;;;;;;;1.05;0.13;;;;;;;20.66;100.00;99847.38;7396955;19;20027;-87
2023/08/18 07:33:14;;;;;;;0.73;0.50;;;;;;;20.66;100.00;99855.88;7397219;19;20037;-85
2023/08/18 07:35:40;;;;;;;1.38;0.17;;;;;;;20.24;100.00;99859.78;7397153;19;20010;-85
2023/08/18 07:38:06;;;;;;;0.30;0.28;;;;;;;20.14;100.00;99859.41;7393921;19;20460;-85
2023/08/18 07:40:33;;;;;;;1.38;0.17;;;;;;;20.10;100.00;99849.72;7395691;19;20010;-86
2023/08/18 07:42:59;;;;;;;0.60;0.17;;;;;;;20.14;100.00;99855.84;7394381;19;20026;-86
2023/08/18 07:45:26;;;;;;;0.40;0.30;;;;;;;20.01;100.00;99853.00;7397004;19;20040;-86
2023/08/18 07:47:53;;;;;;;0.80;0.30;;;;;;;20.07;100.00;99853.66;7394129;19;20015;-86
2023/08/18 07:50:19;;;;;;;0.30;0.28;;;;;;;21.28;100.00;99849.69;7396690;19;20110;-86
2023/08/18 07:52:46;;;;;;;0.30;0.10;;;;;;;20.53;100.00;99847.38;7397587;19;20014;-85
2023/08/18 07:55:12;;;;;;;0.95;0.57;;;;;;;20.32;100.00;99852.19;7399191;19;20018;-84
2023/08/18 07:57:38;;;;;;;0.38;0.20;;;;;;;20.25;100.00;99861.31;7392618;19;20010;-86
2023/08/18 08:00:14;;;;;;;1.05;0.88;;;;;;;20.54;100.00;99863.06;7390847;19;20015;-84
2023/08/18 08:02:40;;;;;;;0.10;0.10;;;;;;;20.34;100.00;99858.81;7391451;19;20018;-85
2023/08/18 08:05:07;;;;;;;0.20;0.10;;;;;;;20.85;100.00;99865.03;7394389;19;20022;-91
2023/08/18 08:07:33;;;;;;;0.65;0.32;;;;;;;19.86;100.00;99864.78;7393709;19;20499;-85
2023/08/18 08:10:04;;;;;;;0.38;0.20;;;;;;;21.01;100.00;99872.38;7394435;19;20010;-86
2023/08/18 08:12:31;;;;;;;1.35;0.40;;;;;;;20.17;100.00;99871.72;7395978;19;20092;-86
2023/08/18 08:14:58;;;;;;;1.15;0.35;;;;;;;19.49;100.00;99865.66;7394557;19;20014;-86
2023/08/18 08:17:25;;;;;;;0.63;0.10;;;;;;;19.74;100.00;99868.34;7396752;19;20021;-86
2023/08/18 08:19:51;;;;;;;0.57;0.10;;;;;;;19.59;100.00;99866.78;7396276;19;20468;-86
2023/08/18 08:22:17;;;;;;;0.45;0.45;;;;;;;19.94;100.00;99881.91;7394046;19;20478;-87
2023/08/18 08:24:43;;;;;;;0.30;0.15;;;;;;;20.28;100.00;99877.19;7396179;19;20021;-86
2023/08/18 08:27:10;;;;;;;0.88;0.40;;;;;;;20.77;100.00;99866.22;7393726;19;20057;-88
2023/08/18 08:29:36;;;;;;;0.17;0.17;;;;;;;21.44;100.00;99865.56;7392143;19;20028;-87
2023/08/18 08:32:02;;;;;;;0.57;0.32;;;;;;;21.30;100.00;99873.31;7394555;19;20023;-88
2023/08/18 08:34:28;;;;;;;0.10;0.10;;;;;;;28.36;100.00;99856.69;7395571;19;20028;-88
2023/08/18 08:36:54;;;;;;;0.30;0.08;;;;;;;26.87;100.00;99867.63;7395741;19;20006;-89
2023/08/18 08:39:20;;;;;;;1.73;0.20;;;;;;;25.84;100.00;99860.91;7393189;19;20030;-89
2023/08/18 08:41:46;;;;;;;0.52;0.22;;;;;;;21.95;100.00;99863.78;7395212;19;20010;-90
2023/08/18 08:44:13;;;;;;;0.15;0.15;;;;;;;21.28;100.00;99863.84;7394288;19;20368;-89
2023/08/18 08:46:40;;;;;;;0.45;0.20;;;;;;;21.87;100.00;99862.97;7397889;19;20433;-89
2023/08/18 08:49:07;;;;;;;0.95;0.73;;;;;;;21.34;100.00;99867.31;7391921;19;20018;-88
2023/08/18 08:51:41;;;;;;;0.10;0.10;;;;;;;21.14;100.00;99868.78;7395368;19;20018;-88
2023/08/18 08:54:11;;;;;;;1.95;0.20;;;;;;;21.18;100.00;99874.13;7393975;19;20014;-87
2023/08/18 08:56:37;;;;;;;1.02;0.43;;;;;;;21.18;100.00;99872.03;7392531;19;20015;-87
2023/08/18 08:59:04;;;;;;;1.02;0.30;;;;;;;21.49;100.00;99871.06;7392009;19;20013;-87
2023/08/18 09:01:30;;;;;;;0.73;0.55;;;;;;;21.62;100.00;99864.59;7392710;19;20024;-86
2023/08/18 09:03:57;;;;;;;4.15;0.60;;;;;;;21.53;100.00;99865.06;7393507;19;20023;-86
2023/08/18 09:06:23;;;;;;;0.70;0.20;;;;;;;21.53;100.00;99862.22;7394736;19;20315;-88
2023/08/18 09:08:49;;;;;;;3.80;0.77;;;;;;;21.52;100.00;99855.06;7391911;19;20385;-85
2023/08/18 09:11:16;;;;;;;1.38;0.20;;;;;;;20.84;100.00;99855.00;7392955;19;20369;-86
2023/08/18 09:13:42;;;;;;;1.55;0.40;;;;;;;21.79;100.00;99862.09;7389526;19;20015;-86
2023/08/18 09:16:08;;;;;;;1.98;0.73;;;;;;;21.85;100.00;99848.59;7396004;19;20050;-86
2023/08/18 09:18:34;;;;;;;1.50;0.80;;;;;;;21.85;100.00;99845.75;7391672;19;20022;-85
2023/08/18 09:21:04;;;;;;;2.17;0.40;;;;;;;22.01;100.00;99841.72;7389580;19;20468;-85
2023/08/18 09:23:30;;;;;;;0.63;0.17;;;;;;;22.22;100.00;99842.44;7392377;19;20475;-85
2023/08/18 09:25:59;;;;;;;0.32;0.13;;;;;;;22.44;100.00;99836.16;7390986;19;20018;-84
2023/08/18 09:28:26;;;;;;;0.28;0.28;;;;;;;34.53;77.83;99816.66;7389776;19;20017;-84
2023/08/18 09:30:52;;;;;;;0.88;0.22;;;;;;;25.06;100.00;99818.41;7394803;19;20480;-85
2023/08/18 09:33:22;;;;;;;1.50;0.93;;;;;;;27.62;100.00;99809.41;7394222;19;20040;-84
2023/08/18 09:35:56;;;;;;;6.82;3.15;;;;;;;25.74;100.00;99808.69;7393116;19;20333;-83
2023/08/18 09:38:25;;;;;;;8.43;3.40;;;;;;;21.86;100.00;99799.06;7388395;19;20360;-84
2023/08/18 09:40:55;;;;;;;9.40;4.35;;;;;;;21.30;100.00;99790.41;7389713;19;20022;-83
2023/08/18 09:43:24;;;;;;;9.93;4.25;;;;;;;21.64;100.00;99779.75;7390138;19;20007;-84
2023/08/18 09:45:57;;;;;;;8.68;3.30;;;;;;;21.84;100.00;99787.53;7392413;19;20028;-84
2023/08/18 09:48:26;;;;;;;12.32;4.20;;;;;;;22.07;100.00;99779.94;7388774;19;20086;-84
2023/08/18 09:50:57;;;;;;;5.40;2.80;;;;;;;22.29;100.00;99773.63;7390529;19;20089;-84
2023/08/18 09:53:29;;;;;;;8.43;3.55;;;;;;;22.52;100.00;99768.81;7394189;19;20014;-84
2023/08/18 09:56:09;;;;;;;5.63;2.53;;;;;;;24.25;100.00;99758.31;7394260;19;20045;-84
2023/08/18 09:58:48;;;;;;;8.65;3.45;;;;;;;24.53;100.00;99758.81;7392955;19;20026;-84
2023/08/18 10:01:17;;;;;;;13.95;4.90;;;;;;;23.06;100.00;99753.53;7392581;19;20019;-84
2023/08/18 10:03:48;;;;;;;7.45;1.75;;;;;;;22.28;100.00;99763.63;7390287;19;20411;-84
2023/08/18 10:06:16;;;;;;;3.60;1.13;;;;;;;21.74;100.00;99766.63;7393623;19;20026;-83
2023/08/18 10:08:43;;;;;;;3.05;0.88;;;;;;;24.33;100.00;99756.97;7392185;19;20022;-84
2023/08/18 10:11:10;;;;;;;0.77;0.50;;;;;;;22.70;100.00;99774.81;7391025;19;20024;-84
2023/08/18 10:13:37;;;;;;;3.65;0.50;;;;;;;25.55;100.00;99763.59;7392117;19;20387;-84
2023/08/18 10:16:05;;;;;;;1.05;0.30;;;;;;;23.21;100.00;99776.31;7390589;19;20060;-84
2023/08/18 10:18:32;;;;;;;1.58;0.45;;;;;;;36.11;76.45;99764.88;7388072;19;20026;-84
2023/08/18 10:20:59;;;;;;;0.55;0.30;;;;;;;32.27;82.80;99772.22;7388771;19;20362;-84
2023/08/18 10:23:30;;;;;;;0.17;0.17;;;;;;;30.40;100.00;99780.41;7392760;19;20078;-84
2023/08/18 10:25:57;;;;;;;0.55;0.22;;;;;;;24.84;100.00;99782.22;7395166;19;20590;-84
2023/08/18 10:28:28;;;;;;;0.30;0.10;;;;;;;24.14;100.00;99781.47;7393975;19;20018;-84
2023/08/18 10:31:03;;;;;;;2.35;0.20;;;;;;;27.46;100.00;99775.91;7400014;19;20010;-84
2023/08/18 10:33:38;;;;;;;0.28;0.00;;;;;;;25.80;100.00;99772.88;7400604;19;20018;-84
2023/08/18 10:36:06;;;;;;;0.10;0.00;;;;;;;31.78;100.00;99759.13;7395936;19;20112;-85
2023/08/18 10:38:36;;;;;;;2.28;0.45;;;;;;;26.47;100.00;99756.41;7395323;19;20371;-86
2023/08/18 10:41:03;;;;;;;1.35;0.43;;;;;;;25.77;100.00;99753.31;7393361;19;20015;-85
2023/08/18 10:43:29;;;;;;;1.45;0.40;;;;;;;37.36;82.95;99727.28;7398665;19;20041;-85
2023/08/18 10:46:00;;;;;;;0.40;0.15;;;;;;;27.82;100.00;99738.69;7397007;19;20602;-86
2023/08/18 10:48:33;;;;;;;0.75;0.10;;;;;;;28.04;100.00;99737.56;7392963;19;20053;-86
2023/08/18 10:51:00;;;;;;;0.40;0.20;;;;;;;30.69;95.02;99726.28;7398214;19;20464;-85
2023/08/18 10:53:33;;;;;;;1.52;0.40;;;;;;;39.09;73.30;99712.97;7399189;19;20037;-84
2023/08/18 10:55:59;;;;;;;2.05;0.32;;;;;;;40.73;56.54;99707.34;7397038;19;20026;-83
2023/08/18 10:58:25;;;;;;;0.57;0.30;;;;;;;27.61;100.00;99718.44;7394587;19;20043;-85
2023/08/18 11:00:52;;;;;;;0.28;0.10;;;;;;;24.98;100.00;99717.19;7394025;19;20356;-85
2023/08/18 11:03:19;;;;;;;1.27;0.15;;;;;;;27.77;100.00;99708.22;7395852;19;20086;-85
2023/08/18 11:05:46;;;;;;;1.20;0.20;;;;;;;24.33;100.00;99710.66;7394734;19;20015;-85
2023/08/18 11:08:12;;;;;;;0.28;0.25;;;;;;;23.52;100.00;99703.19;7392903;19;20085;-85
2023/08/18 11:10:40;;;;;;;0.80;0.20;;;;;;;24.10;100.00;99707.91;7395922;19;20686;-87
2023/08/18 11:13:25;;;;;;;2.58;0.30;;;;;;;24.72;100.00;99695.66;7397341;19;20023;-86
2023/08/18 11:15:52;;;;;;;0.85;0.20;;;;;;;24.35;100.00;99688.81;7399345;19;20028;-87
2023/08/18 11:18:20;;;;;;;1.67;0.22;;;;;;;24.74;100.00;99704.38;7393065;19;20015;-87
2023/08/18 11:20:48;;;;;;;0.60;0.28;;;;;;;22.65;100.00;99701.94;7394765;19;20496;-87
2023/08/18 11:23:14;;;;;;;1.50;0.30;;;;;;;24.44;100.00;99698.84;7394931;19;20022;-86
2023/08/18 11:25:40;;;;;;;1.15;0.13;;;;;;;25.96;100.00;99696.44;7393322;19;20114;-86